Time;durP1;ratioP1;P1;durP2;ratioP2;P2;SDS_P1;SDS_P2;PMS_P1;PMS_P2;Temp;Humidity;BMP_temperature;BMP_pressure;BME280_temperature;BME280_humidity;BME280_pressure;Samples;Min_cycle;Max_cycle;Signal;HPM_P1;HPM_P2
2022/03/21 00:01:10;;;;;;;1.73;1.63;;;7.20;99.90;;;;;;5032604;28;20184;-77
2022/03/21 00:03:36;;;;;;;3.83;3.40;;;7.20;99.90;;;;;;5032321;28;20417;-77
2022/03/21 00:06:01;;;;;;;3.43;2.90;;;7.20;99.90;;;;;;5020213;28;20578;-78
2022/03/21 00:08:28;;;;;;;3.50;3.30;;;7.30;99.90;;;;;;5030615;28;20208;-78
2022/03/21 00:10:54;;;;;;;5.47;2.63;;;7.20;99.90;;;;;;5032691;28;20173;-77
2022/03/21 00:13:20;;;;;;;0.50;0.50;;;7.20;99.90;;;;;;5031889;28;20178;-77
2022/03/21 00:15:48;;;;;;;0.60;0.60;;;7.20;99.90;;;;;;5032429;28;20276;-77
2022/03/21 00:18:14;;;;;;;2.23;2.13;;;7.20;99.90;;;;;;5032164;28;20689;-78
2022/03/21 00:20:42;;;;;;;5.33;2.00;;;7.20;99.90;;;;;;5032414;28;20696;-78
2022/03/21 00:23:08;;;;;;;1.27;0.87;;;7.20;99.90;;;;;;5032116;28;20592;-77
2022/03/21 00:25:33;;;;;;;2.00;1.90;;;7.30;99.90;;;;;;5031288;28;20177;-77
2022/03/21 00:27:59;;;;;;;3.37;3.07;;;7.30;99.90;;;;;;5031748;28;20263;-77
2022/03/21 00:30:26;;;;;;;5.50;3.77;;;7.30;99.90;;;;;;5032430;28;20177;-77
2022/03/21 00:32:53;;;;;;;0.80;0.80;;;7.30;99.90;;;;;;5031846;28;20261;-76
2022/03/21 00:35:20;;;;;;;3.60;2.60;;;7.20;99.90;;;;;;5032137;28;20205;-77
2022/03/21 00:37:46;;;;;;;2.70;2.60;;;7.20;99.90;;;;;;5031265;28;20229;-77
2022/03/21 00:40:14;;;;;;;3.83;1.33;;;7.20;99.90;;;;;;5030689;28;20193;-77
2022/03/21 00:42:41;;;;;;;2.77;2.57;;;7.20;99.90;;;;;;5030584;28;20189;-76
2022/03/21 00:45:10;;;;;;;5.80;4.30;;;7.20;99.90;;;;;;5030819;28;20185;-79
2022/03/21 00:47:36;;;;;;;2.00;1.90;;;7.10;99.90;;;;;;5026557;28;20206;-78
2022/03/21 00:50:04;;;;;;;2.63;1.93;;;7.00;99.90;;;;;;5011041;28;20550;-78
2022/03/21 00:52:30;;;;;;;2.93;0.80;;;7.00;99.90;;;;;;5030542;28;20174;-78
2022/03/21 00:54:56;;;;;;;2.00;1.23;;;6.90;99.90;;;;;;5031867;28;20552;-77
2022/03/21 00:57:22;;;;;;;1.60;0.80;;;6.90;99.90;;;;;;5032594;28;20186;-79
2022/03/21 00:59:47;;;;;;;1.13;1.13;;;6.90;99.90;;;;;;5031902;28;20193;-77
2022/03/21 01:02:13;;;;;;;6.60;3.07;;;6.90;99.90;;;;;;5031572;28;20647;-77
2022/03/21 01:04:39;;;;;;;1.07;1.07;;;6.90;99.90;;;;;;5029844;28;20187;-79
2022/03/21 01:07:05;;;;;;;1.10;1.10;;;6.90;99.90;;;;;;5018519;28;20186;-78
2022/03/21 01:09:31;;;;;;;4.00;3.70;;;6.80;99.90;;;;;;5031398;28;20596;-78
2022/03/21 01:11:56;;;;;;;4.80;2.03;;;6.80;99.90;;;;;;5031188;28;20182;-79
2022/03/21 01:14:22;;;;;;;3.10;2.77;;;6.80;99.90;;;;;;5032018;28;20268;-77
2022/03/21 01:16:50;;;;;;;1.70;1.60;;;6.80;99.90;;;;;;5031981;28;20522;-78
2022/03/21 01:19:15;;;;;;;3.07;2.87;;;6.80;99.90;;;;;;5031799;28;20251;-78
2022/03/21 01:21:41;;;;;;;1.40;1.40;;;6.80;99.90;;;;;;5031671;28;20188;-79
2022/03/21 01:24:06;;;;;;;3.03;1.63;;;6.80;99.90;;;;;;5031084;28;20223;-76
2022/03/21 01:26:32;;;;;;;1.50;1.40;;;6.80;99.90;;;;;;5031772;28;20193;-78
2022/03/21 01:28:57;;;;;;;5.63;4.10;;;6.80;99.90;;;;;;5029810;28;20225;-75
2022/03/21 01:31:23;;;;;;;2.30;2.03;;;6.70;99.90;;;;;;5031140;28;20637;-78
2022/03/21 01:33:49;;;;;;;4.23;3.80;;;6.70;99.90;;;;;;5032757;28;20185;-78
2022/03/21 01:36:14;;;;;;;0.80;0.80;;;6.80;99.90;;;;;;5037297;28;20186;-78
2022/03/21 01:38:40;;;;;;;2.00;1.10;;;6.70;99.90;;;;;;5037314;28;20205;-78
2022/03/21 01:41:06;;;;;;;0.63;0.63;;;6.70;99.90;;;;;;5037972;28;20320;-77
2022/03/21 01:43:31;;;;;;;3.03;2.23;;;6.70;99.90;;;;;;5037631;28;20183;-78
2022/03/21 01:45:57;;;;;;;1.00;1.00;;;6.70;99.90;;;;;;5037623;28;20188;-79
2022/03/21 01:48:22;;;;;;;1.37;1.33;;;6.70;99.90;;;;;;5037201;28;20209;-79
2022/03/21 01:50:48;;;;;;;2.33;2.13;;;6.70;99.90;;;;;;5037721;28;20178;-79
2022/03/21 01:55:59;;;;;;;4.17;2.33;;;6.60;99.90;;;;;;5037817;28;20180;-78
2022/03/21 01:58:25;;;;;;;3.03;2.17;;;6.50;99.90;;;;;;5021367;28;20668;-78
2022/03/21 02:00:51;;;;;;;3.07;2.17;;;6.50;99.90;;;;;;5026414;28;20182;-78
2022/03/21 02:03:19;;;;;;;1.60;1.57;;;6.50;99.90;;;;;;5037801;28;20185;-78
2022/03/21 02:05:48;;;;;;;3.40;3.20;;;6.40;99.90;;;;;;5027510;28;20242;-79
2022/03/21 02:08:15;;;;;;;15.00;3.10;;;6.30;99.90;;;;;;5033536;28;20241;-79
2022/03/21 02:10:45;;;;;;;18.90;3.07;;;6.30;99.90;;;;;;5036361;28;20174;-79
2022/03/21 02:13:11;;;;;;;9.60;2.30;;;6.30;99.90;;;;;;5037522;28;20227;-79
2022/03/21 02:15:37;;;;;;;2.07;0.90;;;6.20;99.90;;;;;;5037809;28;20181;-79
2022/03/21 02:18:04;;;;;;;1.07;0.87;;;6.10;99.90;;;;;;5037488;28;20201;-80
2022/03/21 02:20:32;;;;;;;1.97;1.80;;;6.00;99.90;;;;;;5037843;28;20192;-76
2022/03/21 02:23:25;;;;;;;1.50;1.47;;;5.90;99.90;;;;;;5037156;28;20196;-76
2022/03/21 02:25:52;;;;;;;2.87;1.27;;;5.90;99.90;;;;;;5037463;28;20178;-74
2022/03/21 02:28:18;;;;;;;5.93;3.60;;;5.90;99.90;;;;;;5035781;28;20259;-79
2022/03/21 02:30:49;;;;;;;1.60;1.50;;;5.80;99.90;;;;;;5039209;28;20212;-79
2022/03/21 02:33:18;;;;;;;2.27;1.27;;;5.80;99.90;;;;;;5037165;28;20675;-77
2022/03/21 02:35:46;;;;;;;1.40;1.30;;;5.70;99.90;;;;;;5037056;28;20178;-77
2022/03/21 02:38:14;;;;;;;0.70;0.70;;;5.60;99.90;;;;;;5035574;28;20206;-77
2022/03/21 02:40:40;;;;;;;6.40;2.17;;;5.50;99.90;;;;;;5037448;28;20192;-75
2022/03/21 02:43:05;;;;;;;9.03;2.23;;;5.50;99.90;;;;;;5037189;28;20170;-75
2022/03/21 02:45:31;;;;;;;5.53;3.60;;;5.50;99.90;;;;;;5034900;28;20189;-75
2022/03/21 02:47:57;;;;;;;0.60;0.60;;;5.50;99.90;;;;;;5033384;28;20241;-74
2022/03/21 02:50:33;;;;;;;2.60;1.70;;;5.50;99.90;;;;;;5016304;28;20174;-76
2022/03/21 02:53:01;;;;;;;5.50;2.63;;;5.50;99.90;;;;;;5033994;28;20252;-78
2022/03/21 02:55:27;;;;;;;1.00;1.00;;;5.40;99.90;;;;;;5033948;28;20174;-76
2022/03/21 02:57:53;;;;;;;2.97;2.80;;;5.30;99.90;;;;;;5033931;28;20213;-77
2022/03/21 03:00:18;;;;;;;0.60;0.60;;;5.30;99.90;;;;;;5033773;28;20454;-76
2022/03/21 03:02:44;;;;;;;1.37;1.13;;;5.20;99.90;;;;;;5033604;28;20181;-77
2022/03/21 03:05:09;;;;;;;0.60;0.60;;;5.10;99.90;;;;;;5010234;28;20179;-77
2022/03/21 03:07:35;;;;;;;1.03;1.03;;;5.00;99.90;;;;;;5024420;28;20205;-77
2022/03/21 03:10:01;;;;;;;0.80;0.80;;;5.00;99.90;;;;;;5033828;28;20170;-76
2022/03/21 03:12:26;;;;;;;1.20;0.83;;;5.00;99.90;;;;;;5032790;28;20193;-77
2022/03/21 03:14:52;;;;;;;1.50;1.40;;;5.00;99.90;;;;;;5032001;28;20255;-77
2022/03/21 03:17:17;;;;;;;3.83;3.13;;;4.90;99.90;;;;;;5033512;28;20181;-77
2022/03/21 03:19:43;;;;;;;1.60;1.47;;;4.80;99.90;;;;;;5033739;28;20213;-77
2022/03/21 03:22:09;;;;;;;1.47;1.47;;;4.80;99.90;;;;;;5031959;28;20661;-78
2022/03/21 03:24:36;;;;;;;3.33;3.13;;;4.80;99.90;;;;;;5032087;28;20228;-77
2022/03/21 03:27:02;;;;;;;1.83;1.73;;;4.90;99.90;;;;;;5033451;28;20189;-77
2022/03/21 03:29:27;;;;;;;3.20;2.30;;;5.00;99.90;;;;;;5032988;28;20206;-77
2022/03/21 03:31:53;;;;;;;4.13;2.00;;;5.00;99.90;;;;;;5033257;28;20273;-78
2022/03/21 03:34:19;;;;;;;11.73;3.73;;;5.00;99.90;;;;;;5033128;28;20641;-78
2022/03/21 03:36:44;;;;;;;1.70;1.27;;;5.00;99.90;;;;;;5033005;28;20228;-77
2022/03/21 03:39:10;;;;;;;1.90;1.63;;;5.00;99.90;;;;;;5033225;28;20193;-75
2022/03/21 03:41:36;;;;;;;1.77;1.67;;;4.90;99.90;;;;;;5032936;28;20391;-76
2022/03/21 03:44:01;;;;;;;0.37;0.37;;;4.90;99.90;;;;;;5031817;28;20186;-76
2022/03/21 03:46:27;;;;;;;1.40;1.30;;;4.80;99.90;;;;;;5033132;28;20185;-76
2022/03/21 03:48:54;;;;;;;0.23;0.23;;;4.70;99.90;;;;;;5032317;28;20315;-76
2022/03/21 03:51:20;;;;;;;1.90;1.80;;;4.70;99.90;;;;;;5031571;28;20182;-77
2022/03/21 03:53:45;;;;;;;1.33;1.33;;;4.70;99.90;;;;;;5032994;28;20557;-76
2022/03/21 03:56:11;;;;;;;1.30;1.20;;;4.70;99.90;;;;;;5032840;28;20178;-77
2022/03/21 03:58:38;;;;;;;2.73;2.43;;;4.60;99.90;;;;;;5032567;28;20205;-77
2022/03/21 04:01:04;;;;;;;2.00;1.90;;;4.60;99.90;;;;;;5032868;28;20592;-77
2022/03/21 04:03:46;;;;;;;2.07;0.67;;;4.60;99.90;;;;;;5032541;28;20174;-77
2022/03/21 04:06:23;;;;;;;3.10;2.03;;;4.70;99.90;;;;;;5017571;28;20531;-75
2022/03/21 04:08:50;;;;;;;3.60;1.90;;;4.80;99.90;;;;;;5002436;28;20295;-77
2022/03/21 04:11:16;;;;;;;0.50;0.50;;;4.90;99.90;;;;;;5032352;28;20392;-72
2022/03/21 04:13:42;;;;;;;1.90;1.80;;;5.00;99.90;;;;;;5032543;28;20174;-76
2022/03/21 04:16:09;;;;;;;0.67;0.53;;;5.00;99.90;;;;;;5031183;28;20188;-77
2022/03/21 04:18:36;;;;;;;0.80;0.37;;;5.10;99.90;;;;;;5032449;28;20225;-77
2022/03/21 04:21:03;;;;;;;1.20;0.83;;;5.20;99.90;;;;;;5032296;28;20220;-78
2022/03/21 04:23:29;;;;;;;1.80;1.60;;;5.20;99.90;;;;;;5032309;28;20268;-77
2022/03/21 04:25:55;;;;;;;1.33;0.63;;;5.30;99.90;;;;;;5032404;28;20265;-76
2022/03/21 04:28:20;;;;;;;4.60;3.27;;;5.30;99.90;;;;;;5032087;28;20240;-76
2022/03/21 04:30:46;;;;;;;0.90;0.90;;;5.20;99.90;;;;;;5032288;28;20185;-74
2022/03/21 04:33:12;;;;;;;0.33;0.33;;;5.10;99.90;;;;;;5032122;28;20683;-76
2022/03/21 04:35:39;;;;;;;2.67;0.57;;;4.80;99.90;;;;;;5031968;28;20236;-75
2022/03/21 04:38:13;;;;;;;1.70;1.60;;;4.60;99.90;;;;;;5030278;28;20210;-74
2022/03/21 04:40:39;;;;;;;1.00;1.00;;;4.50;99.90;;;;;;5032083;28;20181;-76
2022/03/21 04:43:05;;;;;;;0.77;0.77;;;4.50;99.90;;;;;;5032105;28;20261;-75
2022/03/21 04:45:30;;;;;;;1.27;1.10;;;4.40;99.90;;;;;;5032153;28;20276;-75
2022/03/21 04:47:56;;;;;;;1.87;1.63;;;4.40;99.90;;;;;;5029956;28;20221;-76
2022/03/21 04:50:22;;;;;;;4.13;2.40;;;4.40;99.90;;;;;;5031879;28;20178;-76
2022/03/21 04:52:47;;;;;;;1.27;1.27;;;4.40;99.90;;;;;;5031587;28;20213;-75
2022/03/21 04:55:15;;;;;;;2.67;2.47;;;4.40;99.90;;;;;;5013859;28;20182;-75
2022/03/21 04:57:41;;;;;;;4.23;2.20;;;4.20;99.90;;;;;;5031681;28;20198;-75
2022/03/21 05:00:07;;;;;;;1.53;1.53;;;4.10;99.90;;;;;;5031581;28;20193;-75
2022/03/21 05:02:32;;;;;;;3.43;1.33;;;4.00;99.90;;;;;;5031300;28;20590;-76
2022/03/21 05:04:58;;;;;;;0.53;0.53;;;4.00;99.90;;;;;;5026960;28;20185;-75
2022/03/21 05:07:25;;;;;;;0.60;0.60;;;3.90;99.90;;;;;;5021052;28;20541;-75
2022/03/21 05:09:51;;;;;;;0.97;0.87;;;3.90;99.90;;;;;;5030813;28;20349;-75
2022/03/21 05:12:17;;;;;;;2.43;1.07;;;3.80;99.90;;;;;;5031187;28;20185;-75
2022/03/21 05:14:43;;;;;;;0.73;0.73;;;3.70;99.90;;;;;;5031394;28;20288;-75
2022/03/21 05:17:10;;;;;;;0.60;0.60;;;3.60;99.90;;;;;;5031296;28;20178;-75
2022/03/21 05:19:36;;;;;;;2.07;1.60;;;3.50;99.90;;;;;;5031447;28;20288;-76
2022/03/21 05:22:06;;;;;;;2.03;1.90;;;3.40;99.90;;;;;;5031240;28;20324;-75
2022/03/21 05:35:54;;;;;;;0.50;0.50;;;3.10;99.90;;;;;;5031039;28;20700;-74
2022/03/21 05:35:57;;;;;;;1.40;1.27;;;3.20;99.90;;;;;;5023828;28;20190;-74
2022/03/21 05:38:27;;;;;;;0.93;0.93;;;3.40;99.90;;;;;;5034380;28;20216;-73
2022/03/21 05:41:01;;;;;;;1.23;1.23;;;3.60;99.90;;;;;;5018312;28;20185;-75
2022/03/21 05:43:32;;;;;;;0.73;0.73;;;3.70;99.90;;;;;;5031317;28;20702;-76
2022/03/21 05:46:00;;;;;;;2.40;1.63;;;3.70;99.90;;;;;;5014759;28;20561;-78
2022/03/21 05:51:15;;;;;;;0.63;0.63;;;3.70;99.90;;;;;;5031635;28;20680;-76
2022/03/21 05:53:41;;;;;;;3.10;0.73;;;3.50;99.90;;;;;;5030842;28;20201;-76
2022/03/21 05:56:07;;;;;;;1.57;1.47;;;3.30;99.90;;;;;;5031484;28;20248;-77
2022/03/21 05:58:32;;;;;;;2.37;2.27;;;3.20;99.90;;;;;;5014781;28;20216;-78
2022/03/21 06:00:58;;;;;;;2.77;2.43;;;3.20;99.90;;;;;;5031251;28;20268;-76
2022/03/21 06:03:24;;;;;;;1.80;1.70;;;3.10;99.90;;;;;;5031731;28;20228;-76
2022/03/21 06:05:50;;;;;;;4.27;2.50;;;3.10;99.90;;;;;;5018505;28;20174;-77
2022/03/21 06:08:16;;;;;;;1.23;1.23;;;3.20;99.90;;;;;;5011458;28;20206;-77
2022/03/21 06:10:42;;;;;;;1.23;1.17;;;3.20;99.90;;;;;;5021040;28;20276;-77
2022/03/21 06:13:08;;;;;;;3.47;2.57;;;3.40;99.90;;;;;;5031277;28;20193;-76
2022/03/21 06:15:35;;;;;;;2.40;2.30;;;3.50;99.90;;;;;;5030869;28;20204;-77
2022/03/21 06:18:02;;;;;;;1.43;1.33;;;3.50;99.90;;;;;;5031568;28;20713;-80
2022/03/21 06:20:28;;;;;;;3.73;1.83;;;3.50;99.90;;;;;;5035177;28;20189;-81
2022/03/21 06:22:55;;;;;;;0.30;0.30;;;3.40;99.90;;;;;;5036645;28;20681;-78
2022/03/21 06:25:21;;;;;;;1.50;1.50;;;3.30;99.90;;;;;;5035781;28;20257;-79
2022/03/21 06:27:48;;;;;;;6.77;2.50;;;3.30;99.90;;;;;;5035303;28;20304;-81
2022/03/21 06:30:14;;;;;;;1.07;1.07;;;3.30;99.90;;;;;;5037377;28;20181;-80
2022/03/21 06:32:39;;;;;;;4.33;3.33;;;3.40;99.90;;;;;;5035765;28;20193;-81
2022/03/21 06:35:09;;;;;;;3.60;2.87;;;3.40;99.90;;;;;;5037801;28;20181;-80
2022/03/21 06:37:35;;;;;;;5.40;2.13;;;3.50;99.90;;;;;;5033983;28;20269;-80
2022/03/21 06:40:01;;;;;;;4.47;2.60;;;3.60;99.90;;;;;;5036599;28;20170;-80
2022/03/21 06:42:27;;;;;;;0.77;0.77;;;3.70;99.90;;;;;;5034044;28;20276;-80
2022/03/21 06:44:53;;;;;;;1.73;1.63;;;3.80;99.90;;;;;;5035808;28;20205;-80
2022/03/21 06:47:19;;;;;;;1.07;0.97;;;3.90;99.90;;;;;;5018441;28;20178;-79
2022/03/21 06:49:45;;;;;;;7.03;2.53;;;4.00;99.90;;;;;;5036404;28;20691;-79
2022/03/21 06:52:12;;;;;;;0.63;0.63;;;4.20;99.90;;;;;;5036275;28;20260;-79
2022/03/21 06:54:38;;;;;;;2.77;2.37;;;4.40;99.90;;;;;;5036403;28;20600;-79
2022/03/21 06:57:04;;;;;;;1.37;1.37;;;4.60;99.90;;;;;;5035662;28;20257;-79
2022/03/21 06:59:30;;;;;;;4.73;1.60;;;4.70;99.90;;;;;;5035351;28;20241;-80
2022/03/21 07:01:56;;;;;;;0.47;0.47;;;4.90;99.90;;;;;;5026727;28;20716;-80
2022/03/21 07:04:23;;;;;;;2.03;1.90;;;5.10;99.90;;;;;;5016991;28;20209;-79
2022/03/21 07:06:50;;;;;;;5.80;4.63;;;5.30;99.90;;;;;;5022861;28;20178;-79
2022/03/21 07:09:15;;;;;;;3.67;3.37;;;5.50;99.90;;;;;;5036551;28;20224;-80
2022/03/21 07:11:41;;;;;;;3.43;2.43;;;5.70;99.90;;;;;;5035595;28;20557;-78
2022/03/21 07:14:06;;;;;;;5.03;4.67;;;5.80;99.90;;;;;;5036362;28;20649;-80
2022/03/21 07:16:32;;;;;;;3.83;3.53;;;6.00;99.90;;;;;;5034388;28;20181;-77
2022/03/21 07:18:57;;;;;;;3.90;3.33;;;6.10;99.90;;;;;;5024329;28;20201;-77
2022/03/21 07:21:23;;;;;;;2.27;2.17;;;6.30;99.90;;;;;;5011343;28;20268;-76
2022/03/21 07:23:48;;;;;;;4.53;4.07;;;6.50;99.90;;;;;;5032150;28;20213;-77
2022/03/21 07:26:14;;;;;;;5.60;3.40;;;6.70;99.90;;;;;;5032128;28;20185;-76
2022/03/21 07:28:40;;;;;;;3.00;2.80;;;6.90;99.90;;;;;;4984324;28;1056834;-78
2022/03/21 07:31:09;;;;;;;4.97;4.63;;;7.10;99.90;;;;;;5015919;28;20236;-78
2022/03/21 07:33:36;;;;;;;3.73;2.80;;;7.30;99.90;;;;;;5032647;28;20183;-76
2022/03/21 07:36:03;;;;;;;6.80;6.00;;;7.40;99.90;;;;;;5029914;28;20181;-76
2022/03/21 07:38:29;;;;;;;2.57;1.57;;;7.50;99.90;;;;;;5033044;28;20204;-77
2022/03/21 07:40:55;;;;;;;4.80;4.40;;;7.60;99.90;;;;;;5033104;28;20551;-77
2022/03/21 07:43:21;;;;;;;5.20;2.83;;;7.80;99.90;;;;;;5032773;28;20324;-77
2022/03/21 07:48:30;;;;;;;2.53;2.33;;;8.10;99.90;;;;;;5032958;28;20232;-77
2022/03/21 07:50:57;;;;;;;4.17;3.83;;;8.30;99.90;;;;;;5032954;28;20181;-75
2022/03/21 07:53:23;;;;;;;4.47;3.20;;;8.40;99.90;;;;;;5032737;28;20185;-78
2022/03/21 07:55:49;;;;;;;5.00;3.23;;;8.60;99.90;;;;;;5032840;28;20672;-76
2022/03/21 07:58:15;;;;;;;8.20;4.00;;;8.70;99.90;;;;;;5032322;28;20206;-77
2022/03/21 08:00:41;;;;;;;7.33;5.70;;;8.80;99.90;;;;;;5032658;28;20178;-77
2022/03/21 08:03:14;;;;;;;4.43;3.80;;;9.00;99.90;;;;;;5029871;28;20273;-77
2022/03/21 08:05:40;;;;;;;6.83;4.07;;;9.10;99.90;;;;;;5022641;28;20174;-77
2022/03/21 08:08:06;;;;;;;5.77;5.13;;;9.30;99.90;;;;;;5027352;28;20210;-76
2022/03/21 08:10:33;;;;;;;46.90;3.33;;;9.40;99.90;;;;;;5029444;28;20181;-78
2022/03/21 08:12:58;;;;;;;8.73;3.43;;;9.50;99.90;;;;;;5032222;28;20603;-78
2022/03/21 08:15:26;;;;;;;6.63;4.00;;;9.60;99.90;;;;;;5016178;28;20178;-77
2022/03/21 08:17:56;;;;;;;6.87;3.37;;;9.70;99.90;;;;;;5018295;28;20242;-77
2022/03/21 08:20:22;;;;;;;15.67;3.03;;;10.00;99.90;;;;;;5031096;28;20190;-77
2022/03/21 08:22:49;;;;;;;6.10;4.40;;;10.20;99.90;;;;;;5032019;28;20193;-78
2022/03/21 08:25:16;;;;;;;5.30;4.43;;;10.30;99.90;;;;;;5032199;28;20197;-76
2022/03/21 08:27:44;;;;;;;7.57;4.33;;;10.40;99.90;;;;;;5031923;28;20312;-77
2022/03/21 08:30:12;;;;;;;3.70;3.40;;;10.40;99.90;;;;;;5063683;23;20251;-72
2022/03/21 08:32:37;;;;;;;5.30;4.07;;;10.60;99.90;;;;;;5051564;28;20173;-72
2022/03/21 08:35:03;;;;;;;8.83;4.33;;;10.70;99.90;;;;;;5062006;28;20261;-72
2022/03/21 08:37:29;;;;;;;11.10;6.07;;;10.80;99.90;;;;;;5069257;28;20183;-73
2022/03/21 08:39:54;;;;;;;6.87;3.53;;;10.80;99.90;;;;;;5073475;28;20204;-72
2022/03/21 08:42:20;;;;;;;5.77;3.90;;;10.90;99.90;;;;;;5073272;28;20188;-72
2022/03/21 08:44:45;;;;;;;5.10;4.63;;;11.00;99.90;;;;;;5071504;28;20184;-71
2022/03/21 08:47:11;;;;;;;20.47;5.47;;;11.20;99.90;;;;;;5073741;28;20177;-72
2022/03/21 08:49:38;;;;;;;5.03;3.90;;;11.30;99.90;;;;;;5073313;28;20219;-72
2022/03/21 08:52:08;;;;;;;8.63;5.73;;;11.60;99.90;;;;;;5073417;28;20172;-72
2022/03/21 08:54:33;;;;;;;7.30;5.87;;;11.80;99.90;;;;;;5074881;28;20180;-72
2022/03/21 08:56:59;;;;;;;4.07;3.63;;;11.90;99.90;;;;;;5073574;28;20225;-73
2022/03/21 08:59:25;;;;;;;3.80;3.50;;;12.00;99.90;;;;;;5072338;28;20204;-73
2022/03/21 09:01:52;;;;;;;5.53;2.17;;;12.10;99.90;;;;;;5074119;28;20180;-73
2022/03/21 09:04:17;;;;;;;7.90;4.33;;;12.20;99.90;;;;;;5074547;28;20682;-72
2022/03/21 09:06:43;;;;;;;4.27;3.87;;;12.20;99.90;;;;;;5059860;28;20241;-73
2022/03/21 09:09:09;;;;;;;10.37;4.37;;;12.40;99.90;;;;;;5073665;28;20269;-72
2022/03/21 09:11:35;;;;;;;6.40;4.73;;;12.50;99.90;;;;;;5071290;28;20183;-72
2022/03/21 09:14:01;;;;;;;6.33;3.57;;;12.50;99.90;;;;;;5067363;28;20202;-73
2022/03/21 09:16:27;;;;;;;2.40;2.20;;;12.50;99.90;;;;;;5064257;28;20221;-75
2022/03/21 09:18:52;;;;;;;3.83;3.53;;;12.70;99.90;;;;;;5075333;28;20191;-72
2022/03/21 09:21:18;;;;;;;4.93;3.80;;;12.70;99.90;;;;;;5074535;28;20223;-72
2022/03/21 09:23:43;;;;;;;4.50;3.07;;;12.80;99.90;;;;;;5074104;28;20216;-72
2022/03/21 09:26:10;;;;;;;4.83;3.57;;;13.00;99.90;;;;;;5073934;28;20191;-73
2022/03/21 09:28:37;;;;;;;3.70;3.40;;;13.20;99.90;;;;;;5072337;28;20236;-72
2022/03/21 09:31:06;;;;;;;5.00;2.97;;;13.20;99.90;;;;;;5072747;28;20218;-73
2022/03/21 09:33:32;;;;;;;8.13;5.63;;;13.20;99.90;;;;;;5073887;28;20255;-73
2022/03/21 09:35:57;;;;;;;7.77;4.33;;;13.20;99.90;;;;;;5073541;28;20281;-72
2022/03/21 09:38:23;;;;;;;4.17;3.23;;;13.40;99.90;;;;;;5073115;28;20626;-73
2022/03/21 09:40:49;;;;;;;7.67;4.07;;;13.60;99.90;;;;;;5073424;28;20207;-76
2022/03/21 09:43:14;;;;;;;6.90;5.23;;;13.70;99.90;;;;;;5071800;28;20621;-73
2022/03/21 09:45:40;;;;;;;3.47;3.27;;;13.90;99.90;;;;;;5073759;28;20207;-73
2022/03/21 09:48:10;;;;;;;4.60;4.03;;;14.10;99.90;;;;;;5071308;28;20208;-73
2022/03/21 09:50:37;;;;;;;8.57;4.10;;;14.10;99.90;;;;;;5072986;28;20199;-73
2022/03/21 09:53:04;;;;;;;9.23;4.50;;;14.20;99.90;;;;;;5073124;28;20263;-73
2022/03/21 09:55:30;;;;;;;11.30;3.07;;;14.30;99.90;;;;;;5075230;28;20230;-73
2022/03/21 09:57:56;;;;;;;3.67;3.33;;;14.40;99.90;;;;;;5076494;28;20188;-73
2022/03/21 10:00:22;;;;;;;4.47;4.13;;;14.50;99.90;;;;;;5077815;28;20210;-73
2022/03/21 10:02:48;;;;;;;3.93;3.07;;;14.50;99.90;;;;;;5073597;28;20315;-72
2022/03/21 10:05:29;;;;;;;15.73;4.87;;;14.60;99.90;;;;;;5063641;28;20189;-72
2022/03/21 10:08:11;;;;;;;14.47;6.60;;;14.90;99.90;;;;;;5070592;28;20189;-73
2022/03/21 10:10:37;;;;;;;6.30;3.00;;;15.00;99.90;;;;;;5074719;28;20204;-72
2022/03/21 10:13:03;;;;;;;5.97;4.03;;;15.10;99.90;;;;;;5073921;28;20264;-72
2022/03/21 10:15:29;;;;;;;11.63;5.33;;;15.20;99.90;;;;;;5065074;28;20202;-73
2022/03/21 10:18:09;;;;;;;4.43;3.63;;;15.30;99.90;;;;;;5072871;28;20195;-72
2022/03/21 10:20:36;;;;;;;8.73;5.07;;;15.40;99.90;;;;;;5077452;28;20264;-73
2022/03/21 10:23:23;;;;;;;10.20;5.93;;;15.60;99.90;;;;;;5075890;28;20671;-73
2022/03/21 10:25:49;;;;;;;11.03;4.67;;;15.90;99.90;;;;;;5076889;28;20186;-73
2022/03/21 10:28:35;;;;;;;10.37;4.17;;;16.00;99.90;;;;;;5075468;28;20210;-73
2022/03/21 10:31:02;;;;;;;4.87;4.17;;;16.10;99.90;;;;;;5074609;28;20226;-73
2022/03/21 10:33:28;;;;;;;4.73;4.23;;;16.20;99.90;;;;;;5074650;28;20186;-73
2022/03/21 10:35:54;;;;;;;5.57;3.90;;;16.30;99.90;;;;;;5076422;28;20190;-73
2022/03/21 10:38:31;;;;;;;7.83;3.43;;;16.50;99.90;;;;;;5075168;28;20249;-73
2022/03/21 10:40:57;;;;;;;12.47;4.77;;;16.40;99.90;;;;;;5076308;28;20318;-74
2022/03/21 10:43:23;;;;;;;10.83;5.13;;;16.50;99.90;;;;;;5075979;28;20224;-73
2022/03/21 10:45:54;;;;;;;3.17;2.90;;;16.50;99.90;;;;;;5077026;28;20180;-73
2022/03/21 10:48:27;;;;;;;8.07;4.30;;;16.70;99.90;;;;;;5075835;28;20203;-73
2022/03/21 10:50:54;;;;;;;5.57;5.03;;;16.90;99.90;;;;;;5077487;28;20203;-73
2022/03/21 10:53:24;;;;;;;9.30;5.03;;;16.90;99.90;;;;;;5075795;28;20190;-73
2022/03/21 10:56:10;;;;;;;10.70;3.43;;;17.10;99.90;;;;;;5076058;28;20275;-73
2022/03/21 10:58:40;;;;;;;3.60;3.30;;;17.30;99.90;;;;;;5075426;28;20191;-73
2022/03/21 11:01:27;;;;;;;5.20;4.70;;;17.30;99.90;;;;;;5075702;28;20235;-73
2022/03/21 11:03:56;;;;;;;10.57;4.17;;;17.40;99.90;;;;;;5069358;28;20183;-72
2022/03/21 11:06:23;;;;;;;5.10;3.60;;;17.50;99.90;;;;;;5056952;28;20204;-73
2022/03/21 11:08:52;;;;;;;6.77;4.67;;;17.80;99.90;;;;;;5074140;28;20690;-73
2022/03/21 11:11:18;;;;;;;30.57;5.07;;;17.80;99.90;;;;;;5069987;28;20176;-71
2022/03/21 11:13:45;;;;;;;4.03;3.10;;;17.90;99.90;;;;;;5073325;28;20186;-73
2022/03/21 11:16:18;;;;;;;8.03;5.27;;;18.30;99.90;;;;;;5060271;28;20640;-73
2022/03/21 11:18:49;;;;;;;4.43;4.03;;;18.30;99.90;;;;;;5069272;28;20180;-73
2022/03/21 11:21:15;;;;;;;6.30;4.73;;;18.40;99.90;;;;;;5073866;28;20199;-73
2022/03/21 11:23:41;;;;;;;10.60;5.80;;;19.00;99.90;;;;;;5075657;28;20184;-74
2022/03/21 11:26:38;;;;;;;10.77;5.43;;;19.50;99.90;;;;;;5074437;28;20191;-73
2022/03/21 11:29:15;;;;;;;3.90;3.60;;;19.30;99.90;;;;;;5075362;28;20208;-72
2022/03/21 11:32:27;;;;;;;8.50;4.50;;;19.30;99.90;;;;;;5074757;28;20196;-74
2022/03/21 11:35:11;;;;;;;4.57;3.50;;;19.90;99.10;;;;;;5051972;28;20196;-73
2022/03/21 11:37:37;;;;;;;9.30;3.73;;;20.10;98.60;;;;;;5074840;28;20543;-74
2022/03/21 11:40:24;;;;;;;4.87;2.63;;;20.60;99.70;;;;;;5074976;28;20215;-73
2022/03/21 11:42:51;;;;;;;5.77;3.10;;;20.30;99.90;;;;;;5074852;28;20192;-73
2022/03/21 11:45:25;;;;;;;7.37;4.27;;;20.30;98.20;;;;;;5075191;28;20190;-74
2022/03/21 11:48:22;;;;;;;6.17;3.73;;;19.90;98.10;;;;;;5073712;28;20723;-73
2022/03/21 11:50:56;;;;;;;9.53;5.90;;;20.40;99.90;;;;;;5073253;28;20400;-73
2022/03/21 11:53:31;;;;;;;5.90;4.00;;;20.90;97.30;;;;;;5072573;28;20478;-73
2022/03/21 11:55:58;;;;;;;3.70;3.40;;;22.00;95.40;;;;;;5054255;28;20195;-74
2022/03/21 11:58:38;;;;;;;3.93;3.50;;;21.70;95.40;;;;;;5056160;28;20177;-73
2022/03/21 12:01:30;;;;;;;4.53;4.07;;;21.90;93.80;;;;;;5053892;28;20229;-73
2022/03/21 12:04:15;;;;;;;9.30;5.57;;;21.60;94.40;;;;;;5053517;28;20188;-74
2022/03/21 12:06:40;;;;;;;3.53;2.13;;;21.40;94.80;;;;;;5057325;28;20180;-71
2022/03/21 12:09:11;;;;;;;3.27;2.77;;;21.30;94.50;;;;;;5055629;28;20215;-73
2022/03/21 12:11:37;;;;;;;4.90;2.97;;;21.20;93.70;;;;;;5067676;28;20267;-74
2022/03/21 12:14:22;;;;;;;2.57;2.20;;;21.40;94.80;;;;;;5071662;28;20181;-72
2022/03/21 12:17:11;;;;;;;5.00;4.50;;;21.70;93.60;;;;;;5063669;28;20180;-74
2022/03/21 12:19:48;;;;;;;4.27;3.87;;;22.20;92.40;;;;;;5066221;28;20208;-73
2022/03/21 12:25:29;;;;;;;7.70;4.87;;;22.40;91.70;;;;;;5056830;28;20659;-70
2022/03/21 12:28:17;;;;;;;3.83;3.07;;;22.70;89.60;;;;;;5065104;28;20218;-73
2022/03/21 12:30:48;;;;;;;14.20;3.83;;;21.90;92.60;;;;;;5075897;28;20245;-74
2022/03/21 12:33:13;;;;;;;8.00;5.90;;;22.30;91.50;;;;;;5065032;28;20651;-73
2022/03/21 12:35:42;;;;;;;3.17;2.70;;;21.60;90.70;;;;;;5074900;28;20183;-74
2022/03/21 12:38:16;;;;;;;2.37;2.27;;;21.70;89.90;;;;;;5076031;28;20175;-73
2022/03/21 12:40:50;;;;;;;5.00;3.43;;;22.10;91.50;;;;;;5062470;28;20209;-74
2022/03/21 12:43:29;;;;;;;3.67;3.03;;;21.90;92.30;;;;;;5061476;28;20190;-74
2022/03/21 12:46:10;;;;;;;3.40;2.73;;;22.10;92.60;;;;;;5075287;28;20273;-73
2022/03/21 12:48:41;;;;;;;7.50;3.87;;;22.20;91.00;;;;;;5075764;28;20215;-74
2022/03/21 12:51:08;;;;;;;5.53;2.53;;;22.20;87.00;;;;;;5076234;28;20212;-74
2022/03/21 12:53:47;;;;;;;7.87;3.20;;;22.80;84.90;;;;;;5074731;28;20528;-73
2022/03/21 12:56:15;;;;;;;4.93;2.83;;;22.90;85.80;;;;;;5075237;28;20180;-73
2022/03/21 12:58:45;;;;;;;5.80;2.33;;;22.70;89.80;;;;;;5076168;28;20176;-74
2022/03/21 13:01:19;;;;;;;3.50;2.77;;;23.20;83.80;;;;;;5074780;28;20702;-74
2022/03/21 13:03:45;;;;;;;4.43;2.83;;;22.90;81.50;;;;;;5075009;28;20184;-74
2022/03/21 13:11:47;;;;;;;4.20;2.97;;;23.30;81.50;;;;;;5072999;28;20203;-74
2022/03/21 13:14:14;;;;;;;6.93;3.13;;;22.80;82.20;;;;;;5075919;28;20165;-73
2022/03/21 13:16:54;;;;;;;2.40;1.97;;;22.70;84.60;;;;;;5075655;28;20734;-74
2022/03/21 13:19:22;;;;;;;4.10;2.23;;;23.10;84.00;;;;;;5074775;28;20702;-73
2022/03/21 13:21:49;;;;;;;4.70;3.63;;;23.90;83.80;;;;;;5074950;28;20176;-74
2022/03/21 13:24:15;;;;;;;3.63;2.93;;;24.00;80.40;;;;;;5075047;28;20184;-74